sensor_id;sensor_type;location;lat;lon;timestamp;P1;durP1;ratioP1;P2;durP2;ratioP2
2542;SDS011;1116;51.502;7.414;2024-01-15T00:01:33;36.95;;;22.88;;
2542;SDS011;1116;51.502;7.414;2024-01-15T00:04:03;36.37;;;23.53;;
2542;SDS011;1116;51.502;7.414;2024-01-15T00:06:36;41.00;;;23.52;;
2542;SDS011;1116;51.502;7.414;2024-01-15T00:09:06;40.08;;;24.08;;
2542;SDS011;1116;51.502;7.414;2024-01-15T00:11:36;40.63;;;23.83;;
2542;SDS011;1116;51.502;7.414;2024-01-15T00:14:06;42.80;;;24.90;;
2542;SDS011;1116;51.502;7.414;2024-01-15T00:16:36;38.10;;;24.95;;
2542;SDS011;1116;51.502;7.414;2024-01-15T00:19:05;41.88;;;24.73;;
2542;SDS011;1116;51.502;7.414;2024-01-15T00:21:38;42.75;;;25.35;;
2542;SDS011;1116;51.502;7.414;2024-01-15T00:24:08;41.53;;;24.58;;
2542;SDS011;1116;51.502;7.414;2024-01-15T00:26:39;47.42;;;25.17;;
2542;SDS011;1116;51.502;7.414;2024-01-15T00:29:09;42.88;;;26.45;;
2542;SDS011;1116;51.502;7.414;2024-01-15T00:31:38;40.53;;;25.33;;
2542;SDS011;1116;51.502;7.414;2024-01-15T00:34:08;43.97;;;24.98;;
2542;SDS011;1116;51.502;7.414;2024-01-15T00:36:41;44.97;;;24.43;;
2542;SDS011;1116;51.502;7.414;2024-01-15T00:39:11;41.80;;;24.77;;
2542;SDS011;1116;51.502;7.414;2024-01-15T00:41:41;43.30;;;26.58;;
2542;SDS011;1116;51.502;7.414;2024-01-15T00:44:11;43.05;;;26.27;;
2542;SDS011;1116;51.502;7.414;2024-01-15T00:46:42;43.00;;;24.38;;
2542;SDS011;1116;51.502;7.414;2024-01-15T00:49:13;40.08;;;24.75;;
2542;SDS011;1116;51.502;7.414;2024-01-15T00:51:50;36.53;;;21.88;;
2542;SDS011;1116;51.502;7.414;2024-01-15T00:54:20;44.25;;;24.13;;
2542;SDS011;1116;51.502;7.414;2024-01-15T00:56:52;40.00;;;23.85;;
2542;SDS011;1116;51.502;7.414;2024-01-15T00:59:21;39.00;;;23.30;;
2542;SDS011;1116;51.502;7.414;2024-01-15T01:01:51;40.78;;;23.05;;
2542;SDS011;1116;51.502;7.414;2024-01-15T01:04:21;40.90;;;23.70;;
2542;SDS011;1116;51.502;7.414;2024-01-15T01:06:53;42.03;;;24.40;;
2542;SDS011;1116;51.502;7.414;2024-01-15T01:09:23;37.50;;;22.47;;
2542;SDS011;1116;51.502;7.414;2024-01-15T01:11:55;35.88;;;23.08;;
2542;SDS011;1116;51.502;7.414;2024-01-15T01:14:28;38.92;;;23.05;;
2542;SDS011;1116;51.502;7.414;2024-01-15T01:16:58;37.08;;;21.75;;
2542;SDS011;1116;51.502;7.414;2024-01-15T01:19:28;38.77;;;22.27;;
2542;SDS011;1116;51.502;7.414;2024-01-15T01:22:00;33.10;;;20.75;;
2542;SDS011;1116;51.502;7.414;2024-01-15T01:24:30;35.87;;;21.03;;
2542;SDS011;1116;51.502;7.414;2024-01-15T01:27:00;40.23;;;21.93;;
2542;SDS011;1116;51.502;7.414;2024-01-15T01:29:30;36.43;;;22.10;;
2542;SDS011;1116;51.502;7.414;2024-01-15T01:32:00;38.97;;;22.08;;
2542;SDS011;1116;51.502;7.414;2024-01-15T01:34:29;40.58;;;21.10;;
2542;SDS011;1116;51.502;7.414;2024-01-15T01:37:04;37.80;;;21.90;;
2542;SDS011;1116;51.502;7.414;2024-01-15T01:39:39;35.03;;;21.30;;
2542;SDS011;1116;51.502;7.414;2024-01-15T01:42:09;34.38;;;20.52;;
2542;SDS011;1116;51.502;7.414;2024-01-15T01:44:40;35.00;;;20.50;;
2542;SDS011;1116;51.502;7.414;2024-01-15T01:47:09;38.25;;;20.75;;
2542;SDS011;1116;51.502;7.414;2024-01-15T01:49:42;36.10;;;21.40;;
2542;SDS011;1116;51.502;7.414;2024-01-15T01:52:15;35.00;;;20.90;;
2542;SDS011;1116;51.502;7.414;2024-01-15T01:54:45;34.50;;;20.60;;
2542;SDS011;1116;51.502;7.414;2024-01-15T01:57:15;31.95;;;20.42;;
2542;SDS011;1116;51.502;7.414;2024-01-15T01:59:48;38.65;;;21.95;;
2542;SDS011;1116;51.502;7.414;2024-01-15T02:02:18;33.47;;;20.20;;
2542;SDS011;1116;51.502;7.414;2024-01-15T02:04:49;32.30;;;20.30;;
2542;SDS011;1116;51.502;7.414;2024-01-15T02:07:22;36.88;;;21.65;;
2542;SDS011;1116;51.502;7.414;2024-01-15T02:09:52;36.10;;;21.85;;
2542;SDS011;1116;51.502;7.414;2024-01-15T02:12:22;38.27;;;23.10;;
2542;SDS011;1116;51.502;7.414;2024-01-15T02:14:52;38.43;;;21.43;;
2542;SDS011;1116;51.502;7.414;2024-01-15T02:17:22;38.63;;;22.08;;
2542;SDS011;1116;51.502;7.414;2024-01-15T02:19:52;35.33;;;21.85;;
2542;SDS011;1116;51.502;7.414;2024-01-15T02:22:25;30.02;;;21.52;;
2542;SDS011;1116;51.502;7.414;2024-01-15T02:24:57;32.42;;;21.48;;
2542;SDS011;1116;51.502;7.414;2024-01-15T02:27:27;37.30;;;19.23;;
2542;SDS011;1116;51.502;7.414;2024-01-15T02:29:57;33.47;;;20.45;;
2542;SDS011;1116;51.502;7.414;2024-01-15T02:32:27;31.63;;;19.07;;
2542;SDS011;1116;51.502;7.414;2024-01-15T02:34:57;34.80;;;20.10;;
2542;SDS011;1116;51.502;7.414;2024-01-15T02:37:26;28.50;;;18.55;;
2542;SDS011;1116;51.502;7.414;2024-01-15T02:39:59;28.98;;;17.90;;
2542;SDS011;1116;51.502;7.414;2024-01-15T02:42:30;30.08;;;17.45;;
2542;SDS011;1116;51.502;7.414;2024-01-15T02:44:59;31.60;;;17.92;;
2542;SDS011;1116;51.502;7.414;2024-01-15T02:47:30;29.23;;;16.75;;
2542;SDS011;1116;51.502;7.414;2024-01-15T02:49:59;28.73;;;18.10;;
2542;SDS011;1116;51.502;7.414;2024-01-15T02:52:29;30.00;;;17.38;;
2542;SDS011;1116;51.502;7.414;2024-01-15T02:55:02;28.98;;;16.95;;
2542;SDS011;1116;51.502;7.414;2024-01-15T02:57:32;26.73;;;17.00;;
2542;SDS011;1116;51.502;7.414;2024-01-15T03:00:02;27.98;;;17.33;;
2542;SDS011;1116;51.502;7.414;2024-01-15T03:02:35;27.40;;;17.50;;
2542;SDS011;1116;51.502;7.414;2024-01-15T03:05:09;28.15;;;16.20;;
2542;SDS011;1116;51.502;7.414;2024-01-15T03:07:39;29.88;;;18.98;;
2542;SDS011;1116;51.502;7.414;2024-01-15T03:10:12;29.60;;;18.13;;
2542;SDS011;1116;51.502;7.414;2024-01-15T03:12:44;27.70;;;17.25;;
2542;SDS011;1116;51.502;7.414;2024-01-15T03:15:14;26.50;;;16.37;;
2542;SDS011;1116;51.502;7.414;2024-01-15T03:17:45;24.80;;;16.47;;
2542;SDS011;1116;51.502;7.414;2024-01-15T03:20:15;33.00;;;18.43;;
2542;SDS011;1116;51.502;7.414;2024-01-15T03:22:47;25.90;;;16.30;;
2542;SDS011;1116;51.502;7.414;2024-01-15T03:25:20;26.40;;;15.68;;
2542;SDS011;1116;51.502;7.414;2024-01-15T03:27:49;24.60;;;15.70;;
2542;SDS011;1116;51.502;7.414;2024-01-15T03:30:20;28.13;;;15.30;;
2542;SDS011;1116;51.502;7.414;2024-01-15T03:32:50;27.35;;;15.38;;
2542;SDS011;1116;51.502;7.414;2024-01-15T03:35:23;24.92;;;14.93;;
2542;SDS011;1116;51.502;7.414;2024-01-15T03:37:55;23.25;;;15.57;;
2542;SDS011;1116;51.502;7.414;2024-01-15T03:40:28;28.35;;;16.27;;
2542;SDS011;1116;51.502;7.414;2024-01-15T03:42:58;27.60;;;14.02;;
2542;SDS011;1116;51.502;7.414;2024-01-15T03:45:28;21.58;;;14.07;;
2542;SDS011;1116;51.502;7.414;2024-01-15T03:47:58;29.38;;;15.95;;
2542;SDS011;1116;51.502;7.414;2024-01-15T03:50:28;22.37;;;14.70;;
2542;SDS011;1116;51.502;7.414;2024-01-15T03:52:57;23.17;;;13.60;;
2542;SDS011;1116;51.502;7.414;2024-01-15T03:55:30;25.63;;;14.05;;
2542;SDS011;1116;51.502;7.414;2024-01-15T03:57:59;25.60;;;14.77;;
2542;SDS011;1116;51.502;7.414;2024-01-15T04:00:29;24.80;;;15.00;;
2542;SDS011;1116;51.502;7.414;2024-01-15T04:02:59;23.90;;;15.13;;
2542;SDS011;1116;51.502;7.414;2024-01-15T04:05:29;27.73;;;15.32;;
2542;SDS011;1116;51.502;7.414;2024-01-15T04:07:59;27.27;;;16.50;;
2542;SDS011;1116;51.502;7.414;2024-01-15T04:10:31;27.20;;;15.30;;
2542;SDS011;1116;51.502;7.414;2024-01-15T04:13:01;28.48;;;16.38;;
2542;SDS011;1116;51.502;7.414;2024-01-15T04:15:39;25.70;;;15.30;;
2542;SDS011;1116;51.502;7.414;2024-01-15T04:18:09;26.58;;;14.77;;
2542;SDS011;1116;51.502;7.414;2024-01-15T04:20:39;20.75;;;14.55;;
2542;SDS011;1116;51.502;7.414;2024-01-15T04:23:09;19.60;;;14.50;;
2542;SDS011;1116;51.502;7.414;2024-01-15T04:25:41;22.00;;;15.25;;
2542;SDS011;1116;51.502;7.414;2024-01-15T04:28:12;26.50;;;16.03;;
2542;SDS011;1116;51.502;7.414;2024-01-15T04:30:42;29.90;;;16.00;;
2542;SDS011;1116;51.502;7.414;2024-01-15T04:33:12;25.05;;;15.80;;
2542;SDS011;1116;51.502;7.414;2024-01-15T04:35:42;25.98;;;15.68;;
2542;SDS011;1116;51.502;7.414;2024-01-15T04:38:12;25.95;;;15.90;;
2542;SDS011;1116;51.502;7.414;2024-01-15T04:40:48;24.00;;;15.97;;
2542;SDS011;1116;51.502;7.414;2024-01-15T04:43:22;24.37;;;15.50;;
2542;SDS011;1116;51.502;7.414;2024-01-15T04:45:51;23.73;;;15.10;;
2542;SDS011;1116;51.502;7.414;2024-01-15T04:48:21;27.20;;;15.00;;
2542;SDS011;1116;51.502;7.414;2024-01-15T04:50:51;27.33;;;15.30;;
2542;SDS011;1116;51.502;7.414;2024-01-15T04:53:21;26.33;;;15.77;;
2542;SDS011;1116;51.502;7.414;2024-01-15T04:55:54;23.93;;;15.90;;
2542;SDS011;1116;51.502;7.414;2024-01-15T04:58:23;27.60;;;15.57;;
2542;SDS011;1116;51.502;7.414;2024-01-15T05:00:54;25.17;;;15.30;;
2542;SDS011;1116;51.502;7.414;2024-01-15T05:03:24;24.08;;;14.73;;
2542;SDS011;1116;51.502;7.414;2024-01-15T05:05:54;24.87;;;16.17;;
2542;SDS011;1116;51.502;7.414;2024-01-15T05:08:24;23.55;;;15.80;;
2542;SDS011;1116;51.502;7.414;2024-01-15T05:10:56;26.17;;;14.57;;
2542;SDS011;1116;51.502;7.414;2024-01-15T05:13:26;20.73;;;14.70;;
2542;SDS011;1116;51.502;7.414;2024-01-15T05:15:56;28.42;;;15.50;;
2542;SDS011;1116;51.502;7.414;2024-01-15T05:18:26;26.47;;;15.20;;
2542;SDS011;1116;51.502;7.414;2024-01-15T05:20:56;26.40;;;14.77;;
2542;SDS011;1116;51.502;7.414;2024-01-15T05:23:25;28.08;;;17.30;;
2542;SDS011;1116;51.502;7.414;2024-01-15T05:25:58;30.30;;;16.77;;
2542;SDS011;1116;51.502;7.414;2024-01-15T05:28:28;24.30;;;16.48;;
2542;SDS011;1116;51.502;7.414;2024-01-15T05:30:58;22.40;;;15.00;;
2542;SDS011;1116;51.502;7.414;2024-01-15T05:33:29;26.52;;;15.55;;
2542;SDS011;1116;51.502;7.414;2024-01-15T05:35:59;24.65;;;15.70;;
2542;SDS011;1116;51.502;7.414;2024-01-15T05:38:29;26.23;;;15.50;;
2542;SDS011;1116;51.502;7.414;2024-01-15T05:41:02;23.35;;;16.10;;
2542;SDS011;1116;51.502;7.414;2024-01-15T05:43:32;24.73;;;14.70;;
2542;SDS011;1116;51.502;7.414;2024-01-15T05:46:01;28.00;;;16.23;;
2542;SDS011;1116;51.502;7.414;2024-01-15T05:48:32;21.73;;;15.03;;
2542;SDS011;1116;51.502;7.414;2024-01-15T05:51:02;25.17;;;15.97;;
2542;SDS011;1116;51.502;7.414;2024-01-15T05:53:32;22.73;;;15.03;;
2542;SDS011;1116;51.502;7.414;2024-01-15T05:56:04;26.33;;;16.50;;
2542;SDS011;1116;51.502;7.414;2024-01-15T05:58:35;24.42;;;15.30;;
2542;SDS011;1116;51.502;7.414;2024-01-15T06:01:04;23.83;;;15.63;;
2542;SDS011;1116;51.502;7.414;2024-01-15T06:03:34;22.08;;;13.95;;
2542;SDS011;1116;51.502;7.414;2024-01-15T06:06:04;21.13;;;14.48;;
2542;SDS011;1116;51.502;7.414;2024-01-15T06:08:34;22.30;;;13.90;;
2542;SDS011;1116;51.502;7.414;2024-01-15T06:11:07;22.20;;;15.33;;
2542;SDS011;1116;51.502;7.414;2024-01-15T06:13:37;21.50;;;14.57;;
2542;SDS011;1116;51.502;7.414;2024-01-15T06:16:11;24.83;;;14.90;;
2542;SDS011;1116;51.502;7.414;2024-01-15T06:18:43;21.85;;;15.15;;
2542;SDS011;1116;51.502;7.414;2024-01-15T06:21:13;23.05;;;14.40;;
2542;SDS011;1116;51.502;7.414;2024-01-15T06:23:43;23.13;;;14.57;;
2542;SDS011;1116;51.502;7.414;2024-01-15T06:26:16;23.15;;;13.95;;
2542;SDS011;1116;51.502;7.414;2024-01-15T06:28:45;24.13;;;14.90;;
2542;SDS011;1116;51.502;7.414;2024-01-15T06:31:15;22.50;;;14.10;;
2542;SDS011;1116;51.502;7.414;2024-01-15T06:33:45;24.10;;;15.05;;
2542;SDS011;1116;51.502;7.414;2024-01-15T06:36:15;20.03;;;14.50;;
2542;SDS011;1116;51.502;7.414;2024-01-15T06:38:45;24.90;;;15.10;;
2542;SDS011;1116;51.502;7.414;2024-01-15T06:41:18;17.85;;;14.00;;
2542;SDS011;1116;51.502;7.414;2024-01-15T06:43:48;28.90;;;15.50;;
2542;SDS011;1116;51.502;7.414;2024-01-15T06:46:19;22.65;;;14.60;;
2542;SDS011;1116;51.502;7.414;2024-01-15T06:48:50;24.80;;;15.50;;
2542;SDS011;1116;51.502;7.414;2024-01-15T06:51:20;25.50;;;15.37;;
2542;SDS011;1116;51.502;7.414;2024-01-15T06:53:50;21.50;;;14.07;;
2542;SDS011;1116;51.502;7.414;2024-01-15T06:56:22;18.52;;;13.88;;
2542;SDS011;1116;51.502;7.414;2024-01-15T06:58:52;18.77;;;13.98;;
2542;SDS011;1116;51.502;7.414;2024-01-15T07:01:22;19.88;;;15.15;;
2542;SDS011;1116;51.502;7.414;2024-01-15T07:03:52;23.17;;;14.90;;
2542;SDS011;1116;51.502;7.414;2024-01-15T07:06:22;20.70;;;14.17;;
2542;SDS011;1116;51.502;7.414;2024-01-15T07:08:52;19.77;;;13.57;;
2542;SDS011;1116;51.502;7.414;2024-01-15T07:11:24;21.27;;;14.45;;
2542;SDS011;1116;51.502;7.414;2024-01-15T07:13:54;21.13;;;15.47;;
2542;SDS011;1116;51.502;7.414;2024-01-15T07:16:24;19.98;;;15.60;;
2542;SDS011;1116;51.502;7.414;2024-01-15T07:19:03;24.05;;;14.90;;
2542;SDS011;1116;51.502;7.414;2024-01-15T07:21:34;19.38;;;13.70;;
2542;SDS011;1116;51.502;7.414;2024-01-15T07:24:06;20.85;;;15.05;;
2542;SDS011;1116;51.502;7.414;2024-01-15T07:26:38;24.58;;;15.40;;
2542;SDS011;1116;51.502;7.414;2024-01-15T07:29:08;22.60;;;13.73;;
2542;SDS011;1116;51.502;7.414;2024-01-15T07:31:38;20.67;;;13.32;;
2542;SDS011;1116;51.502;7.414;2024-01-15T07:34:08;19.48;;;12.50;;
2542;SDS011;1116;51.502;7.414;2024-01-15T07:36:38;18.92;;;12.98;;
2542;SDS011;1116;51.502;7.414;2024-01-15T07:39:08;22.35;;;12.70;;
2542;SDS011;1116;51.502;7.414;2024-01-15T07:41:41;16.00;;;12.10;;
2542;SDS011;1116;51.502;7.414;2024-01-15T07:44:10;16.70;;;12.07;;
2542;SDS011;1116;51.502;7.414;2024-01-15T07:46:43;14.67;;;10.90;;
2542;SDS011;1116;51.502;7.414;2024-01-15T07:49:13;16.30;;;10.87;;
2542;SDS011;1116;51.502;7.414;2024-01-15T07:51:43;13.17;;;10.40;;
2542;SDS011;1116;51.502;7.414;2024-01-15T07:54:14;13.20;;;9.90;;
2542;SDS011;1116;51.502;7.414;2024-01-15T07:56:56;14.40;;;9.20;;
2542;SDS011;1116;51.502;7.414;2024-01-15T07:59:29;14.70;;;9.47;;
2542;SDS011;1116;51.502;7.414;2024-01-15T08:01:59;12.00;;;7.80;;
2542;SDS011;1116;51.502;7.414;2024-01-15T08:04:29;10.70;;;8.13;;
2542;SDS011;1116;51.502;7.414;2024-01-15T08:06:59;10.55;;;8.35;;
2542;SDS011;1116;51.502;7.414;2024-01-15T08:09:29;11.03;;;7.60;;
2542;SDS011;1116;51.502;7.414;2024-01-15T08:12:02;10.53;;;7.50;;
2542;SDS011;1116;51.502;7.414;2024-01-15T08:14:32;9.90;;;7.77;;
2542;SDS011;1116;51.502;7.414;2024-01-15T08:17:02;16.70;;;8.10;;
2542;SDS011;1116;51.502;7.414;2024-01-15T08:19:32;8.40;;;7.17;;
2542;SDS011;1116;51.502;7.414;2024-01-15T08:22:03;9.02;;;6.75;;
2542;SDS011;1116;51.502;7.414;2024-01-15T08:24:32;8.45;;;6.50;;
2542;SDS011;1116;51.502;7.414;2024-01-15T08:27:05;9.00;;;5.90;;
2542;SDS011;1116;51.502;7.414;2024-01-15T08:29:35;9.60;;;6.30;;
2542;SDS011;1116;51.502;7.414;2024-01-15T08:32:05;9.63;;;5.40;;
2542;SDS011;1116;51.502;7.414;2024-01-15T08:34:40;7.53;;;5.40;;
2542;SDS011;1116;51.502;7.414;2024-01-15T08:37:10;9.60;;;6.00;;
2542;SDS011;1116;51.502;7.414;2024-01-15T08:39:40;8.03;;;6.50;;
2542;SDS011;1116;51.502;7.414;2024-01-15T08:42:12;9.30;;;6.60;;
2542;SDS011;1116;51.502;7.414;2024-01-15T08:44:42;9.57;;;7.37;;
2542;SDS011;1116;51.502;7.414;2024-01-15T08:47:13;11.30;;;8.60;;
2542;SDS011;1116;51.502;7.414;2024-01-15T08:49:43;10.63;;;8.90;;
2542;SDS011;1116;51.502;7.414;2024-01-15T08:52:13;11.40;;;8.40;;
2542;SDS011;1116;51.502;7.414;2024-01-15T08:54:43;16.50;;;10.10;;
2542;SDS011;1116;51.502;7.414;2024-01-15T08:57:15;14.00;;;10.10;;
2542;SDS011;1116;51.502;7.414;2024-01-15T08:59:46;13.23;;;10.33;;
2542;SDS011;1116;51.502;7.414;2024-01-15T09:02:19;12.77;;;10.57;;
2542;SDS011;1116;51.502;7.414;2024-01-15T09:04:49;14.47;;;11.53;;
2542;SDS011;1116;51.502;7.414;2024-01-15T09:07:19;15.95;;;12.30;;
2542;SDS011;1116;51.502;7.414;2024-01-15T09:09:51;14.73;;;11.43;;
2542;SDS011;1116;51.502;7.414;2024-01-15T09:12:23;17.75;;;11.80;;
2542;SDS011;1116;51.502;7.414;2024-01-15T09:14:53;14.50;;;11.20;;
2542;SDS011;1116;51.502;7.414;2024-01-15T09:17:23;16.03;;;11.80;;
2542;SDS011;1116;51.502;7.414;2024-01-15T09:19:54;13.27;;;10.95;;
2542;SDS011;1116;51.502;7.414;2024-01-15T09:22:24;15.25;;;12.50;;
2542;SDS011;1116;51.502;7.414;2024-01-15T09:24:54;16.97;;;13.17;;
2542;SDS011;1116;51.502;7.414;2024-01-15T09:27:27;16.80;;;12.82;;
2542;SDS011;1116;51.502;7.414;2024-01-15T09:29:57;21.33;;;12.53;;
2542;SDS011;1116;51.502;7.414;2024-01-15T09:32:27;16.60;;;12.50;;
2542;SDS011;1116;51.502;7.414;2024-01-15T09:34:57;16.13;;;12.13;;
2542;SDS011;1116;51.502;7.414;2024-01-15T09:37:27;18.60;;;13.10;;
2542;SDS011;1116;51.502;7.414;2024-01-15T09:40:12;17.10;;;13.47;;
2542;SDS011;1116;51.502;7.414;2024-01-15T09:42:46;17.63;;;13.20;;
2542;SDS011;1116;51.502;7.414;2024-01-15T09:45:17;17.47;;;13.10;;
2542;SDS011;1116;51.502;7.414;2024-01-15T09:47:47;16.20;;;12.57;;
2542;SDS011;1116;51.502;7.414;2024-01-15T09:50:20;14.57;;;11.93;;
2542;SDS011;1116;51.502;7.414;2024-01-15T09:52:50;17.60;;;12.90;;
2542;SDS011;1116;51.502;7.414;2024-01-15T09:55:23;18.15;;;12.75;;
2542;SDS011;1116;51.502;7.414;2024-01-15T09:57:58;14.77;;;11.07;;
2542;SDS011;1116;51.502;7.414;2024-01-15T10:00:33;16.27;;;10.23;;
2542;SDS011;1116;51.502;7.414;2024-01-15T10:03:06;13.60;;;10.03;;
2542;SDS011;1116;51.502;7.414;2024-01-15T10:05:37;17.25;;;10.88;;
2542;SDS011;1116;51.502;7.414;2024-01-15T10:08:07;13.13;;;9.60;;
2542;SDS011;1116;51.502;7.414;2024-01-15T10:10:37;15.60;;;8.95;;
2542;SDS011;1116;51.502;7.414;2024-01-15T10:13:10;11.53;;;8.93;;
2542;SDS011;1116;51.502;7.414;2024-01-15T10:15:44;10.57;;;8.13;;
2542;SDS011;1116;51.502;7.414;2024-01-15T10:18:15;12.17;;;8.13;;
2542;SDS011;1116;51.502;7.414;2024-01-15T10:20:46;9.95;;;7.75;;
2542;SDS011;1116;51.502;7.414;2024-01-15T10:23:16;9.70;;;7.33;;
2542;SDS011;1116;51.502;7.414;2024-01-15T10:25:46;10.65;;;8.55;;
2542;SDS011;1116;51.502;7.414;2024-01-15T10:28:21;11.90;;;9.30;;
2542;SDS011;1116;51.502;7.414;2024-01-15T10:30:51;10.83;;;9.60;;
2542;SDS011;1116;51.502;7.414;2024-01-15T10:33:22;13.23;;;9.83;;
2542;SDS011;1116;51.502;7.414;2024-01-15T10:35:53;14.95;;;10.00;;
2542;SDS011;1116;51.502;7.414;2024-01-15T10:38:24;12.95;;;9.63;;
2542;SDS011;1116;51.502;7.414;2024-01-15T10:40:54;13.47;;;10.80;;
2542;SDS011;1116;51.502;7.414;2024-01-15T10:43:27;14.52;;;11.00;;
2542;SDS011;1116;51.502;7.414;2024-01-15T10:45:57;15.60;;;10.57;;
2542;SDS011;1116;51.502;7.414;2024-01-15T10:48:27;13.13;;;10.00;;
2542;SDS011;1116;51.502;7.414;2024-01-15T10:50:58;16.03;;;11.03;;
2542;SDS011;1116;51.502;7.414;2024-01-15T10:53:29;14.37;;;10.10;;
2542;SDS011;1116;51.502;7.414;2024-01-15T10:56:01;17.20;;;11.67;;
2542;SDS011;1116;51.502;7.414;2024-01-15T10:58:34;12.80;;;10.23;;
2542;SDS011;1116;51.502;7.414;2024-01-15T11:01:05;18.60;;;11.33;;
2542;SDS011;1116;51.502;7.414;2024-01-15T11:03:35;13.60;;;11.37;;
2542;SDS011;1116;51.502;7.414;2024-01-15T11:06:15;13.30;;;10.93;;
2542;SDS011;1116;51.502;7.414;2024-01-15T11:08:47;13.67;;;11.50;;
2542;SDS011;1116;51.502;7.414;2024-01-15T11:11:18;13.03;;;9.97;;
2542;SDS011;1116;51.502;7.414;2024-01-15T11:13:53;13.48;;;10.05;;
2542;SDS011;1116;51.502;7.414;2024-01-15T11:16:23;16.07;;;11.60;;
2542;SDS011;1116;51.502;7.414;2024-01-15T11:19:02;15.77;;;10.93;;
2542;SDS011;1116;51.502;7.414;2024-01-15T11:21:35;13.23;;;10.73;;
2542;SDS011;1116;51.502;7.414;2024-01-15T11:24:11;15.20;;;11.13;;
2542;SDS011;1116;51.502;7.414;2024-01-15T11:27:05;14.43;;;10.80;;
2542;SDS011;1116;51.502;7.414;2024-01-15T11:29:39;17.17;;;12.57;;
2542;SDS011;1116;51.502;7.414;2024-01-15T11:32:09;14.27;;;11.60;;
2542;SDS011;1116;51.502;7.414;2024-01-15T11:34:52;16.15;;;11.10;;
2542;SDS011;1116;51.502;7.414;2024-01-15T11:37:26;16.05;;;11.18;;
2542;SDS011;1116;51.502;7.414;2024-01-15T11:40:00;13.90;;;10.60;;
2542;SDS011;1116;51.502;7.414;2024-01-15T11:42:37;17.60;;;10.73;;
2542;SDS011;1116;51.502;7.414;2024-01-15T11:45:10;15.53;;;10.90;;
2542;SDS011;1116;51.502;7.414;2024-01-15T11:47:56;17.30;;;10.70;;
2542;SDS011;1116;51.502;7.414;2024-01-15T11:50:41;14.32;;;11.10;;
2542;SDS011;1116;51.502;7.414;2024-01-15T11:53:26;13.50;;;10.43;;
2542;SDS011;1116;51.502;7.414;2024-01-15T11:56:04;13.65;;;9.80;;
2542;SDS011;1116;51.502;7.414;2024-01-15T11:58:42;13.87;;;9.30;;
2542;SDS011;1116;51.502;7.414;2024-01-15T12:01:16;12.55;;;9.80;;
2542;SDS011;1116;51.502;7.414;2024-01-15T12:03:48;12.43;;;9.20;;
2542;SDS011;1116;51.502;7.414;2024-01-15T12:06:18;13.00;;;9.37;;
2542;SDS011;1116;51.502;7.414;2024-01-15T12:08:50;12.30;;;10.10;;
2542;SDS011;1116;51.502;7.414;2024-01-15T12:11:19;12.40;;;9.37;;
2542;SDS011;1116;51.502;7.414;2024-01-15T12:13:52;10.50;;;9.07;;
2542;SDS011;1116;51.502;7.414;2024-01-15T12:16:26;11.40;;;8.30;;
2542;SDS011;1116;51.502;7.414;2024-01-15T12:18:56;11.73;;;7.90;;
2542;SDS011;1116;51.502;7.414;2024-01-15T12:21:29;9.10;;;7.10;;
2542;SDS011;1116;51.502;7.414;2024-01-15T12:23:59;8.73;;;6.20;;
2542;SDS011;1116;51.502;7.414;2024-01-15T12:26:28;9.47;;;7.03;;
2542;SDS011;1116;51.502;7.414;2024-01-15T12:29:00;7.97;;;6.23;;
2542;SDS011;1116;51.502;7.414;2024-01-15T12:31:34;7.50;;;6.60;;
2542;SDS011;1116;51.502;7.414;2024-01-15T12:34:04;12.27;;;7.57;;
2542;SDS011;1116;51.502;7.414;2024-01-15T12:36:35;9.20;;;6.93;;
2542;SDS011;1116;51.502;7.414;2024-01-15T12:39:05;10.23;;;6.60;;
2542;SDS011;1116;51.502;7.414;2024-01-15T12:41:35;9.77;;;7.77;;
2542;SDS011;1116;51.502;7.414;2024-01-15T12:44:05;9.20;;;7.00;;
2542;SDS011;1116;51.502;7.414;2024-01-15T12:46:37;10.17;;;7.73;;
2542;SDS011;1116;51.502;7.414;2024-01-15T12:49:07;11.40;;;7.50;;
2542;SDS011;1116;51.502;7.414;2024-01-15T12:51:37;10.70;;;7.07;;
2542;SDS011;1116;51.502;7.414;2024-01-15T12:54:07;9.07;;;7.73;;
2542;SDS011;1116;51.502;7.414;2024-01-15T12:56:38;11.80;;;7.90;;
2542;SDS011;1116;51.502;7.414;2024-01-15T12:59:09;10.07;;;8.10;;
2542;SDS011;1116;51.502;7.414;2024-01-15T13:01:41;11.67;;;9.43;;
2542;SDS011;1116;51.502;7.414;2024-01-15T13:04:21;11.83;;;7.97;;
2542;SDS011;1116;51.502;7.414;2024-01-15T13:06:53;9.87;;;8.90;;
2542;SDS011;1116;51.502;7.414;2024-01-15T13:09:23;12.60;;;8.60;;
2542;SDS011;1116;51.502;7.414;2024-01-15T13:11:53;12.07;;;7.90;;
2542;SDS011;1116;51.502;7.414;2024-01-15T13:14:23;10.40;;;7.73;;
2542;SDS011;1116;51.502;7.414;2024-01-15T13:16:56;10.40;;;7.43;;
2542;SDS011;1116;51.502;7.414;2024-01-15T13:19:27;9.80;;;7.80;;
2542;SDS011;1116;51.502;7.414;2024-01-15T13:21:58;14.30;;;7.50;;
2542;SDS011;1116;51.502;7.414;2024-01-15T13:24:30;7.70;;;6.90;;
2542;SDS011;1116;51.502;7.414;2024-01-15T13:27:00;8.37;;;6.63;;
2542;SDS011;1116;51.502;7.414;2024-01-15T13:29:30;9.27;;;6.43;;
2542;SDS011;1116;51.502;7.414;2024-01-15T13:32:03;10.80;;;8.63;;
2542;SDS011;1116;51.502;7.414;2024-01-15T13:34:33;13.10;;;8.37;;
2542;SDS011;1116;51.502;7.414;2024-01-15T13:37:04;12.00;;;8.67;;
2542;SDS011;1116;51.502;7.414;2024-01-15T13:39:36;9.87;;;8.30;;
2542;SDS011;1116;51.502;7.414;2024-01-15T13:42:06;9.50;;;7.80;;
2542;SDS011;1116;51.502;7.414;2024-01-15T13:44:38;12.03;;;7.50;;
2542;SDS011;1116;51.502;7.414;2024-01-15T13:47:11;8.32;;;7.05;;
2542;SDS011;1116;51.502;7.414;2024-01-15T13:49:41;11.93;;;7.90;;
2542;SDS011;1116;51.502;7.414;2024-01-15T13:52:10;10.60;;;7.90;;
2542;SDS011;1116;51.502;7.414;2024-01-15T13:54:41;10.87;;;6.90;;
2542;SDS011;1116;51.502;7.414;2024-01-15T13:57:16;8.13;;;6.73;;
2542;SDS011;1116;51.502;7.414;2024-01-15T13:59:47;8.83;;;6.30;;
2542;SDS011;1116;51.502;7.414;2024-01-15T14:02:19;10.67;;;7.13;;
2542;SDS011;1116;51.502;7.414;2024-01-15T14:04:51;10.30;;;6.87;;
2542;SDS011;1116;51.502;7.414;2024-01-15T14:07:21;8.23;;;6.90;;
2542;SDS011;1116;51.502;7.414;2024-01-15T14:09:51;9.00;;;6.17;;
2542;SDS011;1116;51.502;7.414;2024-01-15T14:12:21;9.43;;;6.10;;
2542;SDS011;1116;51.502;7.414;2024-01-15T14:14:53;7.50;;;5.90;;
2542;SDS011;1116;51.502;7.414;2024-01-15T14:17:25;7.50;;;5.50;;
2542;SDS011;1116;51.502;7.414;2024-01-15T14:19:56;5.80;;;4.73;;
2542;SDS011;1116;51.502;7.414;2024-01-15T14:22:29;7.03;;;5.07;;
2542;SDS011;1116;51.502;7.414;2024-01-15T14:25:00;4.97;;;4.50;;
2542;SDS011;1116;51.502;7.414;2024-01-15T14:27:36;6.03;;;5.00;;
2542;SDS011;1116;51.502;7.414;2024-01-15T14:30:06;6.23;;;4.73;;
2542;SDS011;1116;51.502;7.414;2024-01-15T14:32:42;7.93;;;5.40;;
2542;SDS011;1116;51.502;7.414;2024-01-15T14:35:12;5.63;;;4.60;;
2542;SDS011;1116;51.502;7.414;2024-01-15T14:37:42;7.07;;;5.33;;
2542;SDS011;1116;51.502;7.414;2024-01-15T14:40:12;10.43;;;5.60;;
2542;SDS011;1116;51.502;7.414;2024-01-15T14:42:49;11.57;;;6.50;;
2542;SDS011;1116;51.502;7.414;2024-01-15T14:45:19;8.98;;;6.50;;
2542;SDS011;1116;51.502;7.414;2024-01-15T14:47:57;8.20;;;6.23;;
2542;SDS011;1116;51.502;7.414;2024-01-15T14:50:27;8.60;;;6.40;;
2542;SDS011;1116;51.502;7.414;2024-01-15T14:52:57;10.17;;;6.87;;
2542;SDS011;1116;51.502;7.414;2024-01-15T14:55:36;11.00;;;7.83;;
2542;SDS011;1116;51.502;7.414;2024-01-15T14:58:06;12.60;;;7.30;;
2542;SDS011;1116;51.502;7.414;2024-01-15T15:00:36;10.90;;;8.30;;
2542;SDS011;1116;51.502;7.414;2024-01-15T15:03:09;13.00;;;8.00;;
2542;SDS011;1116;51.502;7.414;2024-01-15T15:05:40;9.03;;;8.07;;
2542;SDS011;1116;51.502;7.414;2024-01-15T15:08:11;9.60;;;8.60;;
2542;SDS011;1116;51.502;7.414;2024-01-15T15:10:41;9.00;;;7.10;;
2542;SDS011;1116;51.502;7.414;2024-01-15T15:13:11;8.80;;;7.00;;
2542;SDS011;1116;51.502;7.414;2024-01-15T15:15:49;8.87;;;5.50;;
2542;SDS011;1116;51.502;7.414;2024-01-15T15:18:21;7.27;;;6.17;;
2542;SDS011;1116;51.502;7.414;2024-01-15T15:20:52;7.37;;;4.73;;